sensor_id;sensor_type;location;lat;lon;timestamp;P1;durP1;ratioP1;P2;durP2;ratioP2
45043;SDS011;30784;48.490;9.688;2024-03-02T00:02:10;26.75;;;16.17;;
45043;SDS011;30784;48.490;9.688;2024-03-02T00:04:36;23.73;;;14.82;;
45043;SDS011;30784;48.490;9.688;2024-03-02T00:07:02;23.65;;;14.75;;
45043;SDS011;30784;48.490;9.688;2024-03-02T00:09:28;22.73;;;14.73;;
45043;SDS011;30784;48.490;9.688;2024-03-02T00:11:54;24.70;;;14.63;;
45043;SDS011;30784;48.490;9.688;2024-03-02T00:14:20;22.17;;;13.98;;
45043;SDS011;30784;48.490;9.688;2024-03-02T00:16:45;24.13;;;14.23;;
45043;SDS011;30784;48.490;9.688;2024-03-02T00:19:11;22.52;;;13.82;;
45043;SDS011;30784;48.490;9.688;2024-03-02T00:21:37;23.05;;;14.15;;
45043;SDS011;30784;48.490;9.688;2024-03-02T00:24:27;21.48;;;13.43;;
45043;SDS011;30784;48.490;9.688;2024-03-02T00:26:56;21.70;;;13.50;;
45043;SDS011;30784;48.490;9.688;2024-03-02T00:29:22;23.75;;;14.05;;
45043;SDS011;30784;48.490;9.688;2024-03-02T00:31:47;21.85;;;14.02;;
45043;SDS011;30784;48.490;9.688;2024-03-02T00:34:13;23.40;;;14.02;;
45043;SDS011;30784;48.490;9.688;2024-03-02T00:36:41;23.25;;;14.13;;
45043;SDS011;30784;48.490;9.688;2024-03-02T00:39:07;23.60;;;14.20;;
45043;SDS011;30784;48.490;9.688;2024-03-02T00:41:32;23.40;;;14.23;;
45043;SDS011;30784;48.490;9.688;2024-03-02T00:43:59;25.20;;;14.93;;
45043;SDS011;30784;48.490;9.688;2024-03-02T00:48:56;23.45;;;13.25;;
45043;SDS011;30784;48.490;9.688;2024-03-02T00:51:24;25.38;;;14.90;;
45043;SDS011;30784;48.490;9.688;2024-03-02T00:53:53;25.17;;;13.93;;
45043;SDS011;30784;48.490;9.688;2024-03-02T00:56:22;22.95;;;13.20;;
45043;SDS011;30784;48.490;9.688;2024-03-02T00:58:49;21.08;;;12.70;;
45043;SDS011;30784;48.490;9.688;2024-03-02T01:01:15;21.70;;;12.38;;
45043;SDS011;30784;48.490;9.688;2024-03-02T01:03:41;21.02;;;12.77;;
45043;SDS011;30784;48.490;9.688;2024-03-02T01:06:07;21.27;;;12.30;;
45043;SDS011;30784;48.490;9.688;2024-03-02T01:08:34;22.77;;;12.88;;
45043;SDS011;30784;48.490;9.688;2024-03-02T01:11:00;23.08;;;14.07;;
45043;SDS011;30784;48.490;9.688;2024-03-02T01:13:25;21.27;;;12.73;;
45043;SDS011;30784;48.490;9.688;2024-03-02T01:15:51;22.52;;;12.57;;
45043;SDS011;30784;48.490;9.688;2024-03-02T01:18:17;21.05;;;12.30;;
45043;SDS011;30784;48.490;9.688;2024-03-02T01:20:42;21.92;;;12.90;;
45043;SDS011;30784;48.490;9.688;2024-03-02T01:23:08;20.40;;;12.55;;
45043;SDS011;30784;48.490;9.688;2024-03-02T01:25:33;20.95;;;12.45;;
45043;SDS011;30784;48.490;9.688;2024-03-02T01:27:59;20.02;;;11.18;;
45043;SDS011;30784;48.490;9.688;2024-03-02T01:30:24;20.60;;;12.02;;
45043;SDS011;30784;48.490;9.688;2024-03-02T01:32:50;20.25;;;11.77;;
45043;SDS011;30784;48.490;9.688;2024-03-02T01:35:15;18.42;;;11.38;;
45043;SDS011;30784;48.490;9.688;2024-03-02T01:37:41;19.73;;;11.60;;
45043;SDS011;30784;48.490;9.688;2024-03-02T01:40:07;18.50;;;10.85;;
45043;SDS011;30784;48.490;9.688;2024-03-02T01:42:37;19.65;;;11.00;;
45043;SDS011;30784;48.490;9.688;2024-03-02T01:45:04;20.27;;;11.80;;
45043;SDS011;30784;48.490;9.688;2024-03-02T01:47:30;20.15;;;11.77;;
45043;SDS011;30784;48.490;9.688;2024-03-02T01:49:57;18.73;;;10.95;;
45043;SDS011;30784;48.490;9.688;2024-03-02T01:52:23;19.23;;;10.88;;
45043;SDS011;30784;48.490;9.688;2024-03-02T01:54:49;18.08;;;10.73;;
45043;SDS011;30784;48.490;9.688;2024-03-02T01:57:14;19.55;;;10.70;;
45043;SDS011;30784;48.490;9.688;2024-03-02T01:59:40;18.15;;;10.93;;
45043;SDS011;30784;48.490;9.688;2024-03-02T02:02:06;18.67;;;11.27;;
45043;SDS011;30784;48.490;9.688;2024-03-02T02:04:32;18.08;;;10.07;;
45043;SDS011;30784;48.490;9.688;2024-03-02T02:06:58;19.20;;;11.35;;
45043;SDS011;30784;48.490;9.688;2024-03-02T02:09:24;20.00;;;11.52;;
45043;SDS011;30784;48.490;9.688;2024-03-02T02:11:50;19.33;;;10.73;;
45043;SDS011;30784;48.490;9.688;2024-03-02T02:14:16;18.45;;;10.63;;
45043;SDS011;30784;48.490;9.688;2024-03-02T02:16:41;18.20;;;10.82;;
45043;SDS011;30784;48.490;9.688;2024-03-02T02:19:07;20.45;;;11.27;;
45043;SDS011;30784;48.490;9.688;2024-03-02T02:21:33;17.80;;;10.60;;
45043;SDS011;30784;48.490;9.688;2024-03-02T02:23:58;19.25;;;10.73;;
45043;SDS011;30784;48.490;9.688;2024-03-02T02:26:24;18.15;;;10.55;;
45043;SDS011;30784;48.490;9.688;2024-03-02T02:28:50;21.48;;;11.00;;
45043;SDS011;30784;48.490;9.688;2024-03-02T02:31:15;17.45;;;10.75;;
45043;SDS011;30784;48.490;9.688;2024-03-02T02:33:41;19.85;;;11.55;;
45043;SDS011;30784;48.490;9.688;2024-03-02T02:36:08;19.50;;;11.68;;
45043;SDS011;30784;48.490;9.688;2024-03-02T02:38:36;18.98;;;10.50;;
45043;SDS011;30784;48.490;9.688;2024-03-02T02:41:05;18.40;;;10.15;;
45043;SDS011;30784;48.490;9.688;2024-03-02T02:43:31;18.40;;;11.55;;
45043;SDS011;30784;48.490;9.688;2024-03-02T02:45:56;20.27;;;11.32;;
45043;SDS011;30784;48.490;9.688;2024-03-02T02:48:22;17.25;;;10.38;;
45043;SDS011;30784;48.490;9.688;2024-03-02T02:50:47;18.17;;;10.05;;
45043;SDS011;30784;48.490;9.688;2024-03-02T02:53:13;19.67;;;10.65;;
45043;SDS011;30784;48.490;9.688;2024-03-02T02:55:41;18.13;;;10.45;;
45043;SDS011;30784;48.490;9.688;2024-03-02T02:58:08;19.10;;;10.93;;
45043;SDS011;30784;48.490;9.688;2024-03-02T03:00:34;17.13;;;10.10;;
45043;SDS011;30784;48.490;9.688;2024-03-02T03:03:01;18.83;;;10.63;;
45043;SDS011;30784;48.490;9.688;2024-03-02T03:05:27;17.50;;;9.98;;
45043;SDS011;30784;48.490;9.688;2024-03-02T03:07:52;19.73;;;10.95;;
45043;SDS011;30784;48.490;9.688;2024-03-02T03:10:18;17.77;;;10.40;;
45043;SDS011;30784;48.490;9.688;2024-03-02T03:12:46;19.40;;;11.18;;
45043;SDS011;30784;48.490;9.688;2024-03-02T03:15:12;19.23;;;11.27;;
45043;SDS011;30784;48.490;9.688;2024-03-02T03:17:38;18.10;;;10.50;;
45043;SDS011;30784;48.490;9.688;2024-03-02T03:20:03;17.58;;;10.57;;
45043;SDS011;30784;48.490;9.688;2024-03-02T03:22:30;20.42;;;11.43;;
45043;SDS011;30784;48.490;9.688;2024-03-02T03:24:57;19.38;;;11.15;;
45043;SDS011;30784;48.490;9.688;2024-03-02T03:27:22;20.52;;;11.85;;
45043;SDS011;30784;48.490;9.688;2024-03-02T03:29:48;19.73;;;11.45;;
45043;SDS011;30784;48.490;9.688;2024-03-02T03:32:13;19.77;;;11.60;;
45043;SDS011;30784;48.490;9.688;2024-03-02T03:34:39;19.27;;;10.77;;
45043;SDS011;30784;48.490;9.688;2024-03-02T03:37:05;19.80;;;11.35;;
45043;SDS011;30784;48.490;9.688;2024-03-02T03:39:30;20.63;;;11.93;;
45043;SDS011;30784;48.490;9.688;2024-03-02T03:41:58;20.80;;;11.70;;
45043;SDS011;30784;48.490;9.688;2024-03-02T03:44:24;20.13;;;11.48;;
45043;SDS011;30784;48.490;9.688;2024-03-02T03:46:49;20.27;;;11.48;;
45043;SDS011;30784;48.490;9.688;2024-03-02T03:49:15;20.20;;;11.73;;
45043;SDS011;30784;48.490;9.688;2024-03-02T03:51:40;19.02;;;10.95;;
45043;SDS011;30784;48.490;9.688;2024-03-02T03:54:06;19.88;;;11.73;;
45043;SDS011;30784;48.490;9.688;2024-03-02T03:56:31;19.08;;;11.02;;
45043;SDS011;30784;48.490;9.688;2024-03-02T03:58:57;19.25;;;11.20;;
45043;SDS011;30784;48.490;9.688;2024-03-02T04:01:24;18.98;;;10.98;;
45043;SDS011;30784;48.490;9.688;2024-03-02T04:03:50;20.67;;;10.80;;
45043;SDS011;30784;48.490;9.688;2024-03-02T04:06:15;17.83;;;9.68;;
45043;SDS011;30784;48.490;9.688;2024-03-02T04:08:42;18.00;;;10.20;;
45043;SDS011;30784;48.490;9.688;2024-03-02T04:11:08;18.02;;;9.55;;
45043;SDS011;30784;48.490;9.688;2024-03-02T04:13:33;18.88;;;10.75;;
45043;SDS011;30784;48.490;9.688;2024-03-02T04:15:59;18.85;;;10.43;;
45043;SDS011;30784;48.490;9.688;2024-03-02T04:18:24;22.85;;;9.68;;
45043;SDS011;30784;48.490;9.688;2024-03-02T04:20:50;18.90;;;10.40;;
45043;SDS011;30784;48.490;9.688;2024-03-02T04:23:15;20.02;;;10.32;;
45043;SDS011;30784;48.490;9.688;2024-03-02T04:25:41;21.65;;;9.95;;
45043;SDS011;30784;48.490;9.688;2024-03-02T04:28:07;16.08;;;9.07;;
45043;SDS011;30784;48.490;9.688;2024-03-02T04:30:32;17.88;;;9.10;;
45043;SDS011;30784;48.490;9.688;2024-03-02T04:32:58;22.08;;;10.13;;
45043;SDS011;30784;48.490;9.688;2024-03-02T04:35:24;16.35;;;8.95;;
45043;SDS011;30784;48.490;9.688;2024-03-02T04:37:50;16.73;;;9.23;;
45043;SDS011;30784;48.490;9.688;2024-03-02T04:40:16;17.90;;;8.38;;
45043;SDS011;30784;48.490;9.688;2024-03-02T04:42:42;15.98;;;8.48;;
45043;SDS011;30784;48.490;9.688;2024-03-02T04:45:08;14.38;;;8.63;;
45043;SDS011;30784;48.490;9.688;2024-03-02T04:47:33;13.25;;;7.55;;
45043;SDS011;30784;48.490;9.688;2024-03-02T04:49:59;16.73;;;8.30;;
45043;SDS011;30784;48.490;9.688;2024-03-02T04:52:25;15.15;;;9.05;;
45043;SDS011;30784;48.490;9.688;2024-03-02T04:54:50;22.02;;;8.10;;
45043;SDS011;30784;48.490;9.688;2024-03-02T04:57:34;25.48;;;8.32;;
45043;SDS011;30784;48.490;9.688;2024-03-02T05:00:00;19.60;;;8.55;;
45043;SDS011;30784;48.490;9.688;2024-03-02T05:02:26;21.52;;;8.43;;
45043;SDS011;30784;48.490;9.688;2024-03-02T05:04:51;27.75;;;8.80;;
45043;SDS011;30784;48.490;9.688;2024-03-02T05:07:17;18.52;;;8.80;;
45043;SDS011;30784;48.490;9.688;2024-03-02T05:09:42;22.83;;;8.15;;
45043;SDS011;30784;48.490;9.688;2024-03-02T05:12:08;22.13;;;7.80;;
45043;SDS011;30784;48.490;9.688;2024-03-02T05:14:54;21.48;;;7.70;;
45043;SDS011;30784;48.490;9.688;2024-03-02T05:17:20;41.45;;;8.57;;
45043;SDS011;30784;48.490;9.688;2024-03-02T05:19:45;23.52;;;7.85;;
45043;SDS011;30784;48.490;9.688;2024-03-02T05:22:11;18.58;;;8.05;;
45043;SDS011;30784;48.490;9.688;2024-03-02T05:24:36;14.77;;;8.90;;
45043;SDS011;30784;48.490;9.688;2024-03-02T05:27:04;19.33;;;8.18;;
45043;SDS011;30784;48.490;9.688;2024-03-02T05:29:31;31.00;;;8.32;;
45043;SDS011;30784;48.490;9.688;2024-03-02T05:31:56;31.60;;;7.95;;
45043;SDS011;30784;48.490;9.688;2024-03-02T05:34:22;22.17;;;7.78;;
45043;SDS011;30784;48.490;9.688;2024-03-02T05:36:47;18.73;;;7.97;;
45043;SDS011;30784;48.490;9.688;2024-03-02T05:39:13;17.83;;;8.13;;
45043;SDS011;30784;48.490;9.688;2024-03-02T05:41:38;33.40;;;8.63;;
45043;SDS011;30784;48.490;9.688;2024-03-02T05:44:04;15.85;;;8.80;;
45043;SDS011;30784;48.490;9.688;2024-03-02T05:46:30;17.77;;;7.93;;
45043;SDS011;30784;48.490;9.688;2024-03-02T05:48:55;21.20;;;8.32;;
45043;SDS011;30784;48.490;9.688;2024-03-02T05:51:21;15.73;;;7.95;;
45043;SDS011;30784;48.490;9.688;2024-03-02T05:53:47;18.55;;;7.95;;
45043;SDS011;30784;48.490;9.688;2024-03-02T05:56:12;27.20;;;8.35;;
45043;SDS011;30784;48.490;9.688;2024-03-02T05:58:38;20.10;;;8.18;;
45043;SDS011;30784;48.490;9.688;2024-03-02T06:01:22;16.15;;;7.47;;
45043;SDS011;30784;48.490;9.688;2024-03-02T06:03:53;21.90;;;8.70;;
45043;SDS011;30784;48.490;9.688;2024-03-02T06:06:22;22.13;;;8.63;;
45043;SDS011;30784;48.490;9.688;2024-03-02T06:08:48;16.30;;;7.82;;
45043;SDS011;30784;48.490;9.688;2024-03-02T06:11:13;17.77;;;8.00;;
45043;SDS011;30784;48.490;9.688;2024-03-02T06:13:39;14.48;;;8.32;;
45043;SDS011;30784;48.490;9.688;2024-03-02T06:16:04;18.45;;;8.27;;
45043;SDS011;30784;48.490;9.688;2024-03-02T06:18:30;16.20;;;8.20;;
45043;SDS011;30784;48.490;9.688;2024-03-02T06:20:55;16.45;;;8.23;;
45043;SDS011;30784;48.490;9.688;2024-03-02T06:23:21;15.75;;;8.57;;
45043;SDS011;30784;48.490;9.688;2024-03-02T06:25:46;18.38;;;8.95;;
45043;SDS011;30784;48.490;9.688;2024-03-02T06:28:12;18.92;;;9.02;;
45043;SDS011;30784;48.490;9.688;2024-03-02T06:30:40;15.50;;;8.13;;
45043;SDS011;30784;48.490;9.688;2024-03-02T06:33:07;16.98;;;9.20;;
45043;SDS011;30784;48.490;9.688;2024-03-02T06:35:33;19.58;;;9.65;;
45043;SDS011;30784;48.490;9.688;2024-03-02T06:37:58;18.30;;;9.10;;
45043;SDS011;30784;48.490;9.688;2024-03-02T06:40:24;17.40;;;8.15;;
45043;SDS011;30784;48.490;9.688;2024-03-02T06:42:49;19.42;;;9.82;;
45043;SDS011;30784;48.490;9.688;2024-03-02T06:45:15;21.70;;;9.57;;
45043;SDS011;30784;48.490;9.688;2024-03-02T06:47:40;19.08;;;10.02;;
45043;SDS011;30784;48.490;9.688;2024-03-02T06:50:06;33.17;;;10.85;;
45043;SDS011;30784;48.490;9.688;2024-03-02T06:52:32;22.23;;;9.57;;
45043;SDS011;30784;48.490;9.688;2024-03-02T06:54:57;18.65;;;9.45;;
45043;SDS011;30784;48.490;9.688;2024-03-02T06:57:23;19.63;;;8.63;;
45043;SDS011;30784;48.490;9.688;2024-03-02T06:59:49;21.02;;;9.98;;
45043;SDS011;30784;48.490;9.688;2024-03-02T07:02:16;17.27;;;8.52;;
45043;SDS011;30784;48.490;9.688;2024-03-02T07:04:42;17.27;;;8.40;;
45043;SDS011;30784;48.490;9.688;2024-03-02T07:07:07;26.90;;;7.90;;
45043;SDS011;30784;48.490;9.688;2024-03-02T07:09:33;19.67;;;8.00;;
45043;SDS011;30784;48.490;9.688;2024-03-02T07:11:58;31.48;;;7.60;;
45043;SDS011;30784;48.490;9.688;2024-03-02T07:14:24;21.33;;;8.95;;
45043;SDS011;30784;48.490;9.688;2024-03-02T07:17:09;15.85;;;8.07;;
45043;SDS011;30784;48.490;9.688;2024-03-02T07:19:35;18.40;;;8.38;;
45043;SDS011;30784;48.490;9.688;2024-03-02T07:22:01;28.23;;;9.02;;
45043;SDS011;30784;48.490;9.688;2024-03-02T07:24:30;27.98;;;8.90;;
45043;SDS011;30784;48.490;9.688;2024-03-02T07:26:56;17.50;;;8.52;;
45043;SDS011;30784;48.490;9.688;2024-03-02T07:29:21;15.05;;;7.95;;
45043;SDS011;30784;48.490;9.688;2024-03-02T07:31:47;21.67;;;9.23;;
45043;SDS011;30784;48.490;9.688;2024-03-02T07:34:13;14.32;;;8.10;;
45043;SDS011;30784;48.490;9.688;2024-03-02T07:36:38;14.93;;;7.90;;
45043;SDS011;30784;48.490;9.688;2024-03-02T07:39:04;17.77;;;8.73;;
45043;SDS011;30784;48.490;9.688;2024-03-02T07:41:29;20.75;;;8.48;;
45043;SDS011;30784;48.490;9.688;2024-03-02T07:43:56;18.23;;;9.02;;
45043;SDS011;30784;48.490;9.688;2024-03-02T07:46:21;17.63;;;8.65;;
45043;SDS011;30784;48.490;9.688;2024-03-02T07:48:47;48.80;;;10.90;;
45043;SDS011;30784;48.490;9.688;2024-03-02T07:51:12;24.73;;;9.88;;
45043;SDS011;30784;48.490;9.688;2024-03-02T07:53:39;17.83;;;8.82;;
45043;SDS011;30784;48.490;9.688;2024-03-02T07:56:04;19.98;;;8.70;;
45043;SDS011;30784;48.490;9.688;2024-03-02T07:58:31;20.48;;;9.18;;
45043;SDS011;30784;48.490;9.688;2024-03-02T08:00:58;23.13;;;10.05;;
45043;SDS011;30784;48.490;9.688;2024-03-02T08:03:26;16.80;;;8.55;;
45043;SDS011;30784;48.490;9.688;2024-03-02T08:05:52;19.73;;;11.20;;
45043;SDS011;30784;48.490;9.688;2024-03-02T08:08:17;30.73;;;10.05;;
45043;SDS011;30784;48.490;9.688;2024-03-02T08:10:43;20.85;;;8.48;;
45043;SDS011;30784;48.490;9.688;2024-03-02T08:13:09;15.05;;;7.95;;
45043;SDS011;30784;48.490;9.688;2024-03-02T08:15:34;15.73;;;8.18;;
45043;SDS011;30784;48.490;9.688;2024-03-02T08:18:00;15.05;;;8.52;;
45043;SDS011;30784;48.490;9.688;2024-03-02T08:20:26;14.02;;;7.97;;
45043;SDS011;30784;48.490;9.688;2024-03-02T08:22:52;14.07;;;8.02;;
45043;SDS011;30784;48.490;9.688;2024-03-02T08:25:20;12.93;;;7.80;;
45043;SDS011;30784;48.490;9.688;2024-03-02T08:27:45;15.65;;;9.00;;
45043;SDS011;30784;48.490;9.688;2024-03-02T08:30:11;14.98;;;8.57;;
45043;SDS011;30784;48.490;9.688;2024-03-02T08:32:37;14.43;;;8.68;;
45043;SDS011;30784;48.490;9.688;2024-03-02T08:35:03;14.90;;;8.52;;
45043;SDS011;30784;48.490;9.688;2024-03-02T08:37:29;12.60;;;7.22;;
45043;SDS011;30784;48.490;9.688;2024-03-02T08:39:55;13.63;;;7.68;;
45043;SDS011;30784;48.490;9.688;2024-03-02T08:42:21;13.27;;;6.85;;
45043;SDS011;30784;48.490;9.688;2024-03-02T08:44:47;12.73;;;7.47;;
45043;SDS011;30784;48.490;9.688;2024-03-02T08:47:13;11.50;;;6.35;;
45043;SDS011;30784;48.490;9.688;2024-03-02T08:49:38;11.57;;;6.30;;
45043;SDS011;30784;48.490;9.688;2024-03-02T08:52:04;11.90;;;6.40;;
45043;SDS011;30784;48.490;9.688;2024-03-02T08:54:30;11.65;;;6.47;;
45043;SDS011;30784;48.490;9.688;2024-03-02T08:56:56;11.30;;;6.28;;
45043;SDS011;30784;48.490;9.688;2024-03-02T08:59:22;11.10;;;5.68;;
45043;SDS011;30784;48.490;9.688;2024-03-02T09:01:47;10.48;;;5.97;;
45043;SDS011;30784;48.490;9.688;2024-03-02T09:04:13;11.25;;;6.32;;
45043;SDS011;30784;48.490;9.688;2024-03-02T09:06:38;11.60;;;6.00;;
45043;SDS011;30784;48.490;9.688;2024-03-02T09:09:04;10.50;;;5.63;;
45043;SDS011;30784;48.490;9.688;2024-03-02T09:11:29;9.50;;;5.07;;
45043;SDS011;30784;48.490;9.688;2024-03-02T09:13:55;10.82;;;5.18;;
45043;SDS011;30784;48.490;9.688;2024-03-02T09:16:21;10.55;;;5.30;;
45043;SDS011;30784;48.490;9.688;2024-03-02T09:18:47;9.32;;;4.93;;
45043;SDS011;30784;48.490;9.688;2024-03-02T09:21:12;9.45;;;4.78;;
45043;SDS011;30784;48.490;9.688;2024-03-02T09:23:38;8.95;;;4.65;;
45043;SDS011;30784;48.490;9.688;2024-03-02T09:26:05;10.00;;;4.30;;
45043;SDS011;30784;48.490;9.688;2024-03-02T09:28:30;9.75;;;4.90;;
45043;SDS011;30784;48.490;9.688;2024-03-02T09:30:56;9.45;;;5.00;;
45043;SDS011;30784;48.490;9.688;2024-03-02T09:33:21;8.88;;;4.80;;
45043;SDS011;30784;48.490;9.688;2024-03-02T09:35:47;9.88;;;4.43;;
45043;SDS011;30784;48.490;9.688;2024-03-02T09:38:13;9.48;;;4.90;;
45043;SDS011;30784;48.490;9.688;2024-03-02T09:40:40;8.85;;;4.38;;
45043;SDS011;30784;48.490;9.688;2024-03-02T09:43:07;10.45;;;4.47;;
45043;SDS011;30784;48.490;9.688;2024-03-02T09:45:32;8.73;;;4.10;;
45043;SDS011;30784;48.490;9.688;2024-03-02T09:47:58;9.88;;;4.95;;
45043;SDS011;30784;48.490;9.688;2024-03-02T09:50:24;9.25;;;4.60;;
45043;SDS011;30784;48.490;9.688;2024-03-02T09:52:50;9.15;;;4.53;;
45043;SDS011;30784;48.490;9.688;2024-03-02T09:55:17;8.80;;;4.50;;
45043;SDS011;30784;48.490;9.688;2024-03-02T09:57:44;9.35;;;4.35;;
45043;SDS011;30784;48.490;9.688;2024-03-02T10:00:11;9.90;;;4.03;;
45043;SDS011;30784;48.490;9.688;2024-03-02T10:02:39;9.57;;;4.75;;
45043;SDS011;30784;48.490;9.688;2024-03-02T10:05:08;8.05;;;3.75;;
45043;SDS011;30784;48.490;9.688;2024-03-02T10:07:34;7.95;;;3.70;;
45043;SDS011;30784;48.490;9.688;2024-03-02T10:10:11;9.52;;;4.30;;
45043;SDS011;30784;48.490;9.688;2024-03-02T10:12:38;8.55;;;4.28;;
45043;SDS011;30784;48.490;9.688;2024-03-02T10:15:04;8.38;;;3.95;;
45043;SDS011;30784;48.490;9.688;2024-03-02T10:17:31;8.55;;;4.20;;
45043;SDS011;30784;48.490;9.688;2024-03-02T10:19:56;9.23;;;4.38;;
45043;SDS011;30784;48.490;9.688;2024-03-02T10:22:23;8.50;;;3.95;;
45043;SDS011;30784;48.490;9.688;2024-03-02T10:24:48;8.38;;;3.47;;
45043;SDS011;30784;48.490;9.688;2024-03-02T10:27:17;8.25;;;4.00;;
45043;SDS011;30784;48.490;9.688;2024-03-02T10:29:51;11.93;;;6.22;;
45043;SDS011;30784;48.490;9.688;2024-03-02T10:32:17;13.32;;;7.53;;
45043;SDS011;30784;48.490;9.688;2024-03-02T10:34:43;10.65;;;5.78;;
45043;SDS011;30784;48.490;9.688;2024-03-02T10:37:10;9.98;;;5.80;;
45043;SDS011;30784;48.490;9.688;2024-03-02T10:39:37;9.25;;;4.90;;
45043;SDS011;30784;48.490;9.688;2024-03-02T10:42:04;7.95;;;4.07;;
45043;SDS011;30784;48.490;9.688;2024-03-02T10:44:31;10.27;;;6.03;;
45043;SDS011;30784;48.490;9.688;2024-03-02T10:46:59;9.68;;;5.43;;
45043;SDS011;30784;48.490;9.688;2024-03-02T10:49:27;7.07;;;3.10;;
45043;SDS011;30784;48.490;9.688;2024-03-02T10:51:55;7.40;;;3.00;;
45043;SDS011;30784;48.490;9.688;2024-03-02T10:54:20;5.78;;;2.10;;
45043;SDS011;30784;48.490;9.688;2024-03-02T10:56:51;5.35;;;1.90;;
45043;SDS011;30784;48.490;9.688;2024-03-02T10:59:26;5.22;;;1.77;;
45043;SDS011;30784;48.490;9.688;2024-03-02T11:01:57;4.75;;;1.67;;
45043;SDS011;30784;48.490;9.688;2024-03-02T11:04:28;5.15;;;1.95;;
45043;SDS011;30784;48.490;9.688;2024-03-02T11:09:25;5.88;;;2.30;;
45043;SDS011;30784;48.490;9.688;2024-03-02T11:12:00;6.18;;;2.65;;
45043;SDS011;30784;48.490;9.688;2024-03-02T11:15:09;6.20;;;2.50;;
45043;SDS011;30784;48.490;9.688;2024-03-02T11:17:35;5.90;;;2.53;;
45043;SDS011;30784;48.490;9.688;2024-03-02T11:20:03;7.05;;;2.97;;
45043;SDS011;30784;48.490;9.688;2024-03-02T11:22:29;6.57;;;3.10;;
45043;SDS011;30784;48.490;9.688;2024-03-02T11:24:55;6.15;;;2.50;;
45043;SDS011;30784;48.490;9.688;2024-03-02T11:32:56;6.10;;;2.38;;
45043;SDS011;30784;48.490;9.688;2024-03-02T11:35:23;5.68;;;2.38;;
45043;SDS011;30784;48.490;9.688;2024-03-02T11:37:50;6.38;;;2.38;;
45043;SDS011;30784;48.490;9.688;2024-03-02T11:40:21;7.75;;;2.70;;
45043;SDS011;30784;48.490;9.688;2024-03-02T11:42:47;6.50;;;2.90;;
45043;SDS011;30784;48.490;9.688;2024-03-02T11:45:16;5.10;;;1.77;;
45043;SDS011;30784;48.490;9.688;2024-03-02T11:47:46;4.22;;;1.52;;
45043;SDS011;30784;48.490;9.688;2024-03-02T11:50:28;5.07;;;1.90;;
45043;SDS011;30784;48.490;9.688;2024-03-02T11:52:55;3.85;;;1.50;;
45043;SDS011;30784;48.490;9.688;2024-03-02T11:55:25;4.78;;;1.95;;
45043;SDS011;30784;48.490;9.688;2024-03-02T11:57:52;4.25;;;1.67;;
45043;SDS011;30784;48.490;9.688;2024-03-02T12:00:18;6.13;;;2.40;;
45043;SDS011;30784;48.490;9.688;2024-03-02T12:02:45;6.78;;;2.85;;
45043;SDS011;30784;48.490;9.688;2024-03-02T12:05:24;8.27;;;4.15;;
45043;SDS011;30784;48.490;9.688;2024-03-02T12:07:54;10.63;;;4.80;;
45043;SDS011;30784;48.490;9.688;2024-03-02T12:10:24;19.23;;;7.32;;
45043;SDS011;30784;48.490;9.688;2024-03-02T12:13:00;13.18;;;5.55;;
45043;SDS011;30784;48.490;9.688;2024-03-02T12:15:30;10.25;;;4.20;;
45043;SDS011;30784;48.490;9.688;2024-03-02T12:17:58;8.40;;;3.90;;
45043;SDS011;30784;48.490;9.688;2024-03-02T12:20:26;7.05;;;2.20;;
45043;SDS011;30784;48.490;9.688;2024-03-02T12:22:54;6.57;;;2.80;;
45043;SDS011;30784;48.490;9.688;2024-03-02T12:25:22;4.88;;;1.80;;
45043;SDS011;30784;48.490;9.688;2024-03-02T12:27:49;4.97;;;1.92;;
45043;SDS011;30784;48.490;9.688;2024-03-02T12:30:19;5.70;;;2.13;;
45043;SDS011;30784;48.490;9.688;2024-03-02T12:32:46;5.20;;;2.10;;
45043;SDS011;30784;48.490;9.688;2024-03-02T12:35:12;8.77;;;4.22;;
45043;SDS011;30784;48.490;9.688;2024-03-02T12:37:44;18.08;;;10.30;;
45043;SDS011;30784;48.490;9.688;2024-03-02T12:40:12;20.20;;;11.77;;
45043;SDS011;30784;48.490;9.688;2024-03-02T12:42:41;13.15;;;6.55;;
45043;SDS011;30784;48.490;9.688;2024-03-02T12:45:07;11.45;;;6.22;;
45043;SDS011;30784;48.490;9.688;2024-03-02T12:47:33;7.28;;;2.47;;
45043;SDS011;30784;48.490;9.688;2024-03-02T12:49:59;8.98;;;4.60;;
45043;SDS011;30784;48.490;9.688;2024-03-02T12:52:25;6.88;;;2.90;;
45043;SDS011;30784;48.490;9.688;2024-03-02T12:54:51;6.50;;;2.58;;
45043;SDS011;30784;48.490;9.688;2024-03-02T12:57:20;7.22;;;2.70;;
45043;SDS011;30784;48.490;9.688;2024-03-02T12:59:46;7.78;;;3.90;;
45043;SDS011;30784;48.490;9.688;2024-03-02T13:02:18;7.50;;;3.45;;
45043;SDS011;30784;48.490;9.688;2024-03-02T13:04:44;6.95;;;2.88;;
45043;SDS011;30784;48.490;9.688;2024-03-02T13:07:16;6.82;;;2.92;;
45043;SDS011;30784;48.490;9.688;2024-03-02T13:09:43;5.47;;;1.98;;
45043;SDS011;30784;48.490;9.688;2024-03-02T13:12:11;5.90;;;2.53;;
45043;SDS011;30784;48.490;9.688;2024-03-02T13:14:36;5.55;;;2.30;;
45043;SDS011;30784;48.490;9.688;2024-03-02T13:17:02;5.82;;;2.22;;
45043;SDS011;30784;48.490;9.688;2024-03-02T13:19:30;5.95;;;2.55;;
45043;SDS011;30784;48.490;9.688;2024-03-02T13:21:57;5.97;;;2.70;;
45043;SDS011;30784;48.490;9.688;2024-03-02T13:24:23;7.70;;;4.47;;
45043;SDS011;30784;48.490;9.688;2024-03-02T13:26:53;8.05;;;4.90;;
45043;SDS011;30784;48.490;9.688;2024-03-02T13:29:22;7.60;;;3.75;;
45043;SDS011;30784;48.490;9.688;2024-03-02T13:31:47;8.43;;;4.88;;
45043;SDS011;30784;48.490;9.688;2024-03-02T13:34:13;7.60;;;3.70;;
45043;SDS011;30784;48.490;9.688;2024-03-02T13:36:39;6.70;;;3.17;;
45043;SDS011;30784;48.490;9.688;2024-03-02T13:39:04;8.35;;;4.00;;
45043;SDS011;30784;48.490;9.688;2024-03-02T13:41:31;6.80;;;3.17;;
45043;SDS011;30784;48.490;9.688;2024-03-02T13:43:57;9.40;;;4.55;;
45043;SDS011;30784;48.490;9.688;2024-03-02T13:46:26;6.35;;;3.25;;
45043;SDS011;30784;48.490;9.688;2024-03-02T13:48:51;7.05;;;3.63;;
45043;SDS011;30784;48.490;9.688;2024-03-02T13:51:17;7.22;;;3.70;;
45043;SDS011;30784;48.490;9.688;2024-03-02T13:53:43;7.60;;;4.07;;
45043;SDS011;30784;48.490;9.688;2024-03-02T13:56:08;7.47;;;2.80;;
45043;SDS011;30784;48.490;9.688;2024-03-02T13:58:34;6.55;;;2.75;;
45043;SDS011;30784;48.490;9.688;2024-03-02T14:01:00;6.78;;;3.25;;
45043;SDS011;30784;48.490;9.688;2024-03-02T14:03:26;7.45;;;3.30;;
45043;SDS011;30784;48.490;9.688;2024-03-02T14:05:52;5.70;;;2.40;;
45043;SDS011;30784;48.490;9.688;2024-03-02T14:08:18;6.45;;;2.20;;
45043;SDS011;30784;48.490;9.688;2024-03-02T14:10:44;5.40;;;2.17;;
45043;SDS011;30784;48.490;9.688;2024-03-02T14:13:09;5.38;;;2.13;;
45043;SDS011;30784;48.490;9.688;2024-03-02T14:15:35;4.32;;;1.83;;
45043;SDS011;30784;48.490;9.688;2024-03-02T14:18:03;5.43;;;2.08;;
45043;SDS011;30784;48.490;9.688;2024-03-02T14:20:29;6.35;;;2.70;;
45043;SDS011;30784;48.490;9.688;2024-03-02T14:22:55;5.93;;;2.50;;
45043;SDS011;30784;48.490;9.688;2024-03-02T14:25:20;7.07;;;2.88;;
45043;SDS011;30784;48.490;9.688;2024-03-02T14:27:46;5.55;;;2.38;;
45043;SDS011;30784;48.490;9.688;2024-03-02T14:30:12;6.13;;;2.63;;
45043;SDS011;30784;48.490;9.688;2024-03-02T14:32:38;5.88;;;3.00;;
45043;SDS011;30784;48.490;9.688;2024-03-02T14:35:03;6.00;;;2.70;;
45043;SDS011;30784;48.490;9.688;2024-03-02T14:37:29;6.72;;;3.00;;
45043;SDS011;30784;48.490;9.688;2024-03-02T14:39:55;8.30;;;3.78;;
45043;SDS011;30784;48.490;9.688;2024-03-02T14:42:21;6.03;;;2.83;;
45043;SDS011;30784;48.490;9.688;2024-03-02T14:44:47;6.32;;;2.92;;